Airport View

Enter AWOS ICAO identifier for current METAR.

ex. KFNL

PAOH 080256Z AUTO 10003KT 10SM SCT041 OVC055 14/11 A2995 RMK AO2 SLP142 T01440106 53002

8 Jul 2020 03:14

Frequency: 132.05

Phone: 907-945-3687

Other Area AWOS: PAGS - PAEL - PAJN - PAGN

TAF PAGS 072331Z 0800/0824 21007KT P6SM VCSH SCT050 FM080800 VRB03KT P6SM VCSH BKN025 FM081100 VRB03KT P6SM VCSH OVC015 FM081300 VRB03KT P6SM -SHRA BKN008 OVC015 FM081700 VRB03KT P6SM VCSH OVC015 FM082000 22005KT P6SM VCSH OVC025 AMD LTD TO CLD VIS AND WIND